AirNav   TITAN Aviation Fuels
 
 768 users online  

NV97 Desert Creek Airport
Wellington, Nevada, USA

GOING TO WELLINGTON?


FAA INFORMATION EFFECTIVE 01 DECEMBER 2022

Location

FAA Identifier: NV97
Lat/Long: 38-41-03.0000N 119-19-20.0000W
38-41.050000N 119-19.333333W
38.6841667,-119.3222222
(estimated)
Elevation: 5358 ft. / 1633 m (estimated)
From city: 8 miles SE of WELLINGTON, NV
Time zone: UTC -8 (UTC -7 during Daylight Saving Time)
Zip code: 89444

Airport Operations

Airport use: Private use. Permission required prior to landing
Activation date: 12/2003
Control tower: no
ARTCC: OAKLAND CENTER
FSS: RENO FLIGHT SERVICE STATION
Attendance: IREG
Wind indicator: lighted
Segmented circle: no

Airport Services

Runway Information

Runway 17/35

Dimensions: 1441 x 60 ft. / 439 x 18 m
Surface: gravel
RUNWAY 17  RUNWAY 35
Traffic pattern: leftleft
Obstructions: 10 ft. trees, 10 ft. from runway5 ft. fence

Airport Ownership and Management from official FAA records

Ownership: Privately-owned
Owner: MANNY & SHARON PUERTA
P.O. BOX 83
WELLINGTON, NV 89444
Phone 775-771-2794
Manager: MANNY & SHARON PUERTA
P.O. BOX 83
WELLINGTON, NV 89444
Phone 775-771-2794

Airport Operational Statistics

Aircraft based on the field: 1
Single engine airplanes: 1
    
Aircraft operations: 10/year
100% local general aviation

Additional Remarks

AVOID OVERFLIGHT OF HOMES. LAND SOUTH, TAKE- OFF NORTH.
DEER AND DOGS ON RY.
MOUNTAIN 1.5 NM WEST AND 2 NM SOUTH.
FOR CD CTC OAKLAND ARTCC AT 510-745-3380.

Instrument Procedures

There are no published instrument procedures at NV97.

Some nearby airports with instrument procedures:

KMEV - Minden-Tahoe Airport (28 nm NW)
KHTH - Hawthorne Industrial Airport (33 nm E)
KTVL - Lake Tahoe Airport (34 nm W)
KCXP - Carson City Airport (36 nm NW)
KSPZ - Silver Springs Airport (43 nm N)
 
Loc | Ops | Rwys | IFR | FBO | Links
Com | Nav | Svcs | Stats | Notes
Area around NV97 (Desert Creek Airport)
 
Road maps at: MapQuest Bing Google
 
Aerial photo
No photo
 
Sectional chart

 
Airport distance calculator
Flying to Desert Creek Airport? Find the distance to fly.

From to NV97

Sunrise and sunset
Times for 05-Dec-2022
 Local
(UTC-8)
 Zulu
(UTC)
Morning civil twilight06:3214:32
Sunrise07:0115:01
Sunset16:3500:35
Evening civil twilight17:0401:04

Current date and time
Zulu (UTC)  06-Dec-2022 04:49:42
Local (UTC-8)  05-Dec-2022 20:49:42
 
METAR
KBAN 
22nm SW 
060352Z AUTO 24003KT 10SM CLR M03/M09 A2989 RMK AO2 SLP133 T10331094 $
KMEV 
28nm NW 
060435Z AUTO 00000KT 10SM FEW039 FEW049 BKN065 M02/M04 A2996 RMK AO2
KTVL 
34nm W 
060353Z AUTO 17004KT 9SM OVC020 M03/M06 A2992 RMK AO2 SNB33E51 SLP145 P0000 T10331056
KCXP 
36nm NW 
060435Z AUTO 32006KT 10SM FEW030 SCT039 OVC065 02/M03 A2997 RMK AO2
TAF
KMEV 
28nm NW 
051730Z 0518/0618 16011KT P6SM VCSH BKN040 BKN100 FM052000 25011G18KT P6SM VCSH BKN045 FM060100 12005KT P6SM OVC050
KTVL 
34nm W 
060054Z 0601/0624 19005KT 5SM -SHSN BKN020 BKN035 TEMPO 0601/0603 1/2SM SHSN OVC010 FM060300 19003KT 6SM -SHSN BKN025 OVC040 FM060600 19003KT P6SM VCSH BKN030 OVC040 FM061000 19003KT P6SM BKN040 FM061700 19004KT P6SM SCT040
NOTAMs
Click for the latest NOTAMs
NOTAMs are issued by the DoD/FAA and will open in a separate window not controlled by AirNav.

 

 
 

Would you like to see your business listed on this page?

 If your business provides an interesting product or service to pilots, flight crews, aircraft, or users of the Desert Creek Airport, you should consider listing it here.  To start the listing process, click on the button below
 
Add a business
 

Other Pages about Desert Creek Airport

Update a link
 
Copyright © AirNav, LLC. All rights reserved. Privacy Policy  Contact